createdAt,value
2023-09-23T00:00:53.411Z,98631.38
2023-09-23T00:03:43.808Z,98642.03
2023-09-23T00:06:34.125Z,98645.34
2023-09-23T00:09:24.351Z,98648.38
2023-09-23T00:12:16.462Z,98645.94
2023-09-23T00:15:08.632Z,98654.56
2023-09-23T00:18:01.507Z,98653.78
2023-09-23T00:20:51.841Z,98644.78
2023-09-23T00:23:42.108Z,98638.25
2023-09-23T00:26:33.711Z,98636.41
2023-09-23T00:29:26.350Z,98623.38
2023-09-23T00:32:18.632Z,98615.06
2023-09-23T00:35:13.606Z,98615.34
2023-09-23T00:38:03.988Z,98624.22
2023-09-23T00:40:54.448Z,98631.84
2023-09-23T00:43:45.019Z,98627.38
2023-09-23T00:46:36.843Z,98629.72
2023-09-23T00:49:28.626Z,98638.06
2023-09-23T00:52:21.630Z,98643.66
2023-09-23T00:55:12.407Z,98644.47
2023-09-23T00:58:02.912Z,98633.66
2023-09-23T01:00:55.947Z,98633.28
2023-09-23T01:03:47.522Z,98646.63
2023-09-23T01:06:37.795Z,98643.47
2023-09-23T01:09:34.443Z,98649.72
2023-09-23T01:12:24.724Z,98665.91
2023-09-23T01:15:18.312Z,98666.06
2023-09-23T01:18:14.472Z,98666.22
2023-09-23T01:21:08.488Z,98669.31
2023-09-23T01:24:01.397Z,98663.44
2023-09-23T01:26:54.257Z,98662.59
2023-09-23T01:29:45.469Z,98663.31
2023-09-23T01:32:49.791Z,98670.03
2023-09-23T01:35:40.407Z,98676.47
2023-09-23T01:38:30.740Z,98674.63
2023-09-23T01:41:23.553Z,98680.44
2023-09-23T01:44:13.844Z,98687.06
2023-09-23T01:47:04.121Z,98693.00
2023-09-23T01:49:54.541Z,98690.94
2023-09-23T01:52:44.927Z,98692.38
2023-09-23T01:55:35.314Z,98703.31
2023-09-23T01:58:28.383Z,98692.97
2023-09-23T02:01:18.639Z,98705.66
2023-09-23T02:04:10.084Z,98697.75
2023-09-23T02:07:00.306Z,98700.50
2023-09-23T02:09:50.582Z,98704.19
2023-09-23T02:12:40.818Z,98696.44
2023-09-23T02:15:33.742Z,98701.09
2023-09-23T02:18:25.487Z,98689.50
2023-09-23T02:21:17.099Z,98695.41
2023-09-23T02:24:08.251Z,98695.16
2023-09-23T02:26:58.488Z,98697.44
2023-09-23T02:29:51.145Z,98708.06
2023-09-23T02:32:46.433Z,98713.38
2023-09-23T02:35:36.945Z,98715.44
2023-09-23T02:38:27.250Z,98714.81
2023-09-23T02:41:18.367Z,98717.34
2023-09-23T02:44:09.005Z,98711.91
2023-09-23T02:46:59.302Z,98726.38
2023-09-23T02:49:52.322Z,98733.56
2023-09-23T02:52:43.491Z,98731.78
2023-09-23T02:55:33.888Z,98734.53
2023-09-23T02:58:24.601Z,98745.56
2023-09-23T03:01:16.299Z,98747.06
2023-09-23T03:04:17.653Z,98755.75
2023-09-23T03:07:11.653Z,98751.69
2023-09-23T03:10:06.321Z,98761.88
2023-09-23T03:13:03.584Z,98761.50
2023-09-23T03:15:55.002Z,98768.13
2023-09-23T03:18:56.752Z,98771.44
2023-09-23T03:21:47.309Z,98774.06
2023-09-23T03:24:40.108Z,98779.38
2023-09-23T03:27:31.124Z,98779.13
2023-09-23T03:30:21.896Z,98793.13
2023-09-23T03:33:13.213Z,98787.91
2023-09-23T03:36:03.778Z,98793.63
2023-09-23T03:38:54.318Z,98787.91
2023-09-23T03:41:48.107Z,98803.78
2023-09-23T03:44:39.078Z,98801.53
2023-09-23T03:47:29.724Z,98807.13
2023-09-23T03:50:20.559Z,98805.69
2023-09-23T03:53:12.337Z,98802.66
2023-09-23T03:56:04.761Z,98808.22
2023-09-23T03:58:58.186Z,98825.13
2023-09-23T04:01:48.599Z,98819.75
2023-09-23T04:04:39.173Z,98818.38
2023-09-23T04:07:29.394Z,98815.56
2023-09-23T04:10:20.863Z,98818.97
2023-09-23T04:13:11.292Z,98825.94
2023-09-23T04:16:06.970Z,98833.31
2023-09-23T04:18:57.241Z,98841.72
2023-09-23T04:21:47.432Z,98852.53
2023-09-23T04:24:37.744Z,98860.59
2023-09-23T04:27:28.047Z,98869.13
2023-09-23T04:30:18.333Z,98872.38
2023-09-23T04:33:13.807Z,98868.28
2023-09-23T04:36:04.865Z,98873.50
2023-09-23T04:38:55.107Z,98879.31
2023-09-23T04:41:45.534Z,98895.34
2023-09-23T04:44:35.765Z,98902.00
2023-09-23T04:47:26.234Z,98896.09
2023-09-23T04:50:19.050Z,98896.16
2023-09-23T04:53:09.589Z,98907.91
2023-09-23T04:56:00.481Z,98920.75
2023-09-23T04:58:51.063Z,98931.94
2023-09-23T05:01:41.768Z,98934.38
2023-09-23T05:04:32.220Z,98937.66
2023-09-23T05:07:26.465Z,98947.56
2023-09-23T05:10:18.460Z,98944.88
2023-09-23T05:13:09.493Z,98932.03
2023-09-23T05:15:59.753Z,98940.53
2023-09-23T05:18:50.722Z,98941.09
2023-09-23T05:21:40.970Z,98937.06
2023-09-23T05:24:33.777Z,98951.91
2023-09-23T05:27:24.061Z,98944.75
2023-09-23T05:30:15.728Z,98949.00
2023-09-23T05:33:06.793Z,98948.44
2023-09-23T05:35:57.444Z,98946.81
2023-09-23T05:38:48.931Z,98934.75
2023-09-23T05:41:41.748Z,98941.28
2023-09-23T05:44:32.117Z,98941.88
2023-09-23T05:47:24.619Z,98943.84
2023-09-23T05:50:16.790Z,98958.25
2023-09-23T05:53:07.499Z,98955.81
2023-09-23T05:55:57.803Z,98966.50
2023-09-23T05:58:51.738Z,98968.09
2023-09-23T06:01:42.123Z,98961.00
2023-09-23T06:04:32.397Z,98972.09
2023-09-23T06:07:22.619Z,98977.53
2023-09-23T06:10:13.426Z,98983.94
2023-09-23T06:13:04.338Z,98996.56
2023-09-23T06:15:57.150Z,98986.50
2023-09-23T06:18:47.475Z,98990.72
2023-09-23T06:21:37.697Z,98981.78
2023-09-23T06:24:27.994Z,98993.50
2023-09-23T06:27:18.290Z,98993.03
2023-09-23T06:30:10.031Z,98992.66
2023-09-23T06:33:02.849Z,99001.41
2023-09-23T06:35:53.757Z,99004.81
2023-09-23T06:38:44.435Z,99004.34
2023-09-23T06:41:34.676Z,99009.59
2023-09-23T06:44:25.010Z,99013.69
2023-09-23T06:47:17.933Z,99024.94
2023-09-23T06:50:11.603Z,99028.00
2023-09-23T06:53:02.175Z,99027.78
2023-09-23T06:55:52.460Z,99029.53
2023-09-23T06:58:43.262Z,99034.41
2023-09-23T07:01:34.760Z,99036.50
2023-09-23T07:04:25.309Z,99049.09
2023-09-23T07:07:18.189Z,99052.94
2023-09-23T07:10:11.241Z,99054.88
2023-09-23T07:13:01.450Z,99063.81
2023-09-23T07:15:51.712Z,99067.63
2023-09-23T07:18:42.547Z,99084.72
2023-09-23T07:21:32.872Z,99105.63
2023-09-23T07:24:27.461Z,99109.34
2023-09-23T07:27:17.676Z,99107.00
2023-09-23T07:30:09.313Z,99110.47
2023-09-23T07:33:00.946Z,99120.69
2023-09-23T07:35:51.304Z,99126.81
2023-09-23T07:38:41.545Z,99121.66
2023-09-23T07:41:34.345Z,99137.16
2023-09-23T07:44:24.632Z,99140.25
2023-09-23T07:47:14.979Z,99142.66
2023-09-23T07:50:05.361Z,99138.47
2023-09-23T07:52:55.633Z,99136.22
2023-09-23T07:55:46.036Z,99151.56
2023-09-23T07:58:38.954Z,99159.34
2023-09-23T08:01:29.293Z,99169.94
2023-09-23T08:04:19.685Z,99166.44
2023-09-23T08:07:10.075Z,99180.13
2023-09-23T08:10:00.409Z,99174.78
2023-09-23T08:12:50.774Z,99172.16
2023-09-23T08:15:43.607Z,99173.94
2023-09-23T08:18:34.616Z,99162.69
2023-09-23T08:21:24.868Z,99180.81
2023-09-23T08:24:15.153Z,99183.13
2023-09-23T08:27:06.605Z,99184.78
2023-09-23T08:29:57.708Z,99175.50
2023-09-23T08:32:50.653Z,99196.00
2023-09-23T08:35:42.942Z,99201.03
2023-09-23T08:38:33.213Z,99201.13
2023-09-23T08:41:26.224Z,99212.78
2023-09-23T08:44:16.961Z,99222.25
2023-09-23T08:47:08.551Z,99223.31
2023-09-23T08:50:01.488Z,99221.91
2023-09-23T08:52:51.794Z,99208.34
2023-09-23T08:55:42.471Z,99213.88
2023-09-23T08:58:32.716Z,99219.03
2023-09-23T09:01:23.189Z,99224.13
2023-09-23T09:04:16.175Z,99242.81
2023-09-23T09:07:09.766Z,99247.91
2023-09-23T09:10:00.274Z,99254.75
2023-09-23T09:12:52.050Z,99252.38
2023-09-23T09:15:42.303Z,99248.72
2023-09-23T09:18:32.872Z,99255.06
2023-09-23T09:21:24.028Z,99257.66
2023-09-23T09:24:18.159Z,99262.31
2023-09-23T09:27:15.328Z,99261.59
2023-09-23T09:30:13.977Z,99269.00
2023-09-23T09:33:08.851Z,99259.38
2023-09-23T09:35:59.863Z,99268.38
2023-09-23T09:38:55.031Z,99270.94
2023-09-23T09:41:50.320Z,99275.34
2023-09-23T09:44:43.359Z,99268.16
2023-09-23T09:47:34.055Z,99276.06
2023-09-23T09:50:26.928Z,99284.63
2023-09-23T09:53:18.399Z,99277.16
2023-09-23T09:56:10.570Z,99277.38
2023-09-23T09:59:05.080Z,99274.44
2023-09-23T10:01:56.122Z,99268.75
2023-09-23T10:04:51.033Z,99274.28
2023-09-23T10:07:57.468Z,99279.31
2023-09-23T10:10:49.572Z,99275.53
2023-09-23T10:13:40.428Z,99276.88
2023-09-23T10:16:39.061Z,99289.34
2023-09-23T10:19:33.700Z,99287.34
2023-09-23T10:22:25.303Z,99294.31
2023-09-23T10:25:15.566Z,99284.97
2023-09-23T10:28:08.717Z,99296.22
2023-09-23T10:31:05.037Z,99299.22
2023-09-23T10:33:59.003Z,99296.91
2023-09-23T10:36:52.596Z,99293.03
2023-09-23T10:39:47.516Z,99296.31
2023-09-23T10:42:39.017Z,99305.00
2023-09-23T10:45:29.313Z,99294.44
2023-09-23T10:48:20.638Z,99298.13
2023-09-23T10:51:14.174Z,99295.50
2023-09-23T10:54:04.483Z,99302.81
2023-09-23T10:56:56.036Z,99299.22
2023-09-23T10:59:47.329Z,99307.59
2023-09-23T11:02:37.725Z,99305.44
2023-09-23T11:05:28.764Z,99306.41
2023-09-23T11:08:22.288Z,99303.56
2023-09-23T11:11:13.509Z,99301.38
2023-09-23T11:14:03.831Z,99312.69
2023-09-23T11:16:55.421Z,99310.13
2023-09-23T11:19:55.871Z,99306.91
2023-09-23T11:22:46.394Z,99307.94
2023-09-23T11:25:43.481Z,99309.44
2023-09-23T11:28:34.026Z,99307.81
2023-09-23T11:31:24.469Z,99312.78
2023-09-23T11:34:15.040Z,99320.97
2023-09-23T11:37:05.880Z,99318.44
2023-09-23T11:39:56.469Z,99323.75
2023-09-23T11:42:49.337Z,99323.13
2023-09-23T11:45:39.748Z,99331.16
2023-09-23T11:48:30.198Z,99336.34
2023-09-23T11:51:21.938Z,99329.88
2023-09-23T11:54:13.375Z,99323.16
2023-09-23T11:57:03.652Z,99332.06
2023-09-23T11:59:56.617Z,99332.28
2023-09-23T12:02:47.210Z,99329.81
2023-09-23T12:05:37.824Z,99329.41
2023-09-23T12:08:28.341Z,99330.41
2023-09-23T12:11:19.165Z,99331.78
2023-09-23T12:14:11.279Z,99337.09
2023-09-23T12:17:04.768Z,99342.41
2023-09-23T12:19:55.096Z,99345.66
2023-09-23T12:22:47.341Z,99350.25
2023-09-23T12:25:37.590Z,99355.72
2023-09-23T12:28:28.606Z,99360.66
2023-09-23T12:31:18.870Z,99367.44
2023-09-23T12:34:11.971Z,99368.28
2023-09-23T12:37:02.746Z,99376.69
2023-09-23T12:39:53.244Z,99374.75
2023-09-23T12:42:44.226Z,99375.78
2023-09-23T12:45:34.459Z,99383.44
2023-09-23T12:48:24.926Z,99388.19
2023-09-23T12:51:18.715Z,99393.88
2023-09-23T12:54:10.024Z,99389.06
2023-09-23T12:57:00.289Z,99396.34
2023-09-23T12:59:50.544Z,99384.59
2023-09-23T13:02:40.898Z,99397.59
2023-09-23T13:05:31.315Z,99387.91
2023-09-23T13:08:25.189Z,99388.66
2023-09-23T13:11:16.779Z,99387.44
2023-09-23T13:14:08.756Z,99391.81
2023-09-23T13:16:59.819Z,99385.72
2023-09-23T13:19:50.091Z,99390.44
2023-09-23T13:22:40.563Z,99386.38
2023-09-23T13:25:33.388Z,99392.53
2023-09-23T13:28:23.870Z,99384.31
2023-09-23T13:31:14.234Z,99389.72
2023-09-23T13:34:07.050Z,99388.84
2023-09-23T13:36:57.527Z,99403.34
2023-09-23T13:39:47.793Z,99407.53
2023-09-23T13:42:40.656Z,99406.94
2023-09-23T13:45:31.305Z,99415.44
2023-09-23T13:48:21.658Z,99425.41
2023-09-23T13:51:12.336Z,99432.84
2023-09-23T13:54:02.559Z,99425.88
2023-09-23T13:56:53.109Z,99429.16
2023-09-23T13:59:45.951Z,99433.19
2023-09-23T14:02:36.598Z,99432.44
2023-09-23T14:05:27.573Z,99444.88
2023-09-23T14:08:17.967Z,99439.41
2023-09-23T14:11:08.657Z,99443.81
2023-09-23T14:13:58.925Z,99453.13
2023-09-23T14:16:51.994Z,99458.94
2023-09-23T14:19:42.263Z,99456.78
2023-09-23T14:22:32.472Z,99458.41
2023-09-23T14:25:24.470Z,99465.84
2023-09-23T14:28:14.691Z,99460.03
2023-09-23T14:31:04.990Z,99471.94
2023-09-23T14:34:00.970Z,99475.31
2023-09-23T14:36:51.956Z,99476.69
2023-09-23T14:39:42.149Z,99476.06
2023-09-23T14:42:32.442Z,99479.44
2023-09-23T14:45:23.621Z,99471.44
2023-09-23T14:48:14.071Z,99474.06
2023-09-23T14:51:06.999Z,99482.25
2023-09-23T14:53:57.377Z,99492.88
2023-09-23T14:56:48.566Z,99495.97
2023-09-23T14:59:38.840Z,99488.38
2023-09-23T15:02:29.229Z,99492.59
2023-09-23T15:05:22.031Z,99503.16
2023-09-23T15:08:14.968Z,99503.16
2023-09-23T15:11:05.348Z,99510.44
2023-09-23T15:13:56.958Z,99507.25
2023-09-23T15:16:49.161Z,99515.66
2023-09-23T15:19:39.977Z,99511.44
2023-09-23T15:22:30.556Z,99518.47
2023-09-23T15:25:23.371Z,99518.91
2023-09-23T15:28:14.678Z,99522.59
2023-09-23T15:31:04.916Z,99518.94
2023-09-23T15:33:55.724Z,99522.41
2023-09-23T15:36:45.993Z,99526.81
2023-09-23T15:39:36.951Z,99535.75
2023-09-23T15:42:31.794Z,99535.16
2023-09-23T15:45:22.037Z,99554.63
2023-09-23T15:48:12.547Z,99545.53
2023-09-23T15:51:11.040Z,99551.63
2023-09-23T15:54:01.694Z,99561.16
2023-09-23T15:56:52.310Z,99562.88
2023-09-23T15:59:45.605Z,99564.78
2023-09-23T16:02:36.588Z,99572.91
2023-09-23T16:05:26.959Z,99582.09
2023-09-23T16:08:17.409Z,99584.22
2023-09-23T16:11:07.765Z,99582.50
2023-09-23T16:13:58.016Z,99587.53
2023-09-23T16:16:50.972Z,99589.34
2023-09-23T16:19:41.297Z,99601.94
2023-09-23T16:22:31.539Z,99598.69
2023-09-23T16:25:21.815Z,99601.63
2023-09-23T16:28:12.288Z,99606.72
2023-09-23T16:31:02.585Z,99613.50
2023-09-23T16:33:57.658Z,99614.81
2023-09-23T16:36:48.374Z,99614.63
2023-09-23T16:39:38.604Z,99626.81
2023-09-23T16:42:28.888Z,99625.38
2023-09-23T16:45:19.222Z,99631.31
2023-09-23T16:48:11.044Z,99629.69
2023-09-23T16:51:04.122Z,99633.94
2023-09-23T16:53:54.384Z,99641.00
2023-09-23T16:56:44.695Z,99640.19
2023-09-23T16:59:35.749Z,99642.94
2023-09-23T17:02:26.186Z,99646.16
2023-09-23T17:05:17.082Z,99653.19
2023-09-23T17:08:10.404Z,99657.06
2023-09-23T17:11:00.805Z,99659.16
2023-09-23T17:13:51.538Z,99661.16
2023-09-23T17:16:42.568Z,99665.22
2023-09-23T17:19:32.870Z,99671.72
2023-09-23T17:22:23.418Z,99664.69
2023-09-23T17:25:16.820Z,99670.66
2023-09-23T17:28:07.502Z,99675.31
2023-09-23T17:30:59.268Z,99684.66
2023-09-23T17:33:50.053Z,99681.28
2023-09-23T17:36:43.649Z,99682.16
2023-09-23T17:39:38.018Z,99686.75
2023-09-23T17:42:31.475Z,99695.91
2023-09-23T17:45:22.171Z,99702.31
2023-09-23T17:48:13.635Z,99707.25
2023-09-23T17:51:04.643Z,99709.44
2023-09-23T17:53:56.149Z,99710.69
2023-09-23T17:56:46.358Z,99717.66
2023-09-23T17:59:40.123Z,99715.28
2023-09-23T18:02:30.516Z,99717.78
2023-09-23T18:05:21.009Z,99723.25
2023-09-23T18:08:11.859Z,99728.91
2023-09-23T18:11:02.119Z,99729.63
2023-09-23T18:13:52.325Z,99732.06
2023-09-23T18:16:45.777Z,99741.63
2023-09-23T18:19:38.170Z,99752.56
2023-09-23T18:22:29.028Z,99750.28
2023-09-23T18:25:19.875Z,99755.66
2023-09-23T18:28:10.633Z,99759.78
2023-09-23T18:31:00.933Z,99765.00
2023-09-23T18:33:54.296Z,99781.06
2023-09-23T18:36:45.056Z,99769.66
2023-09-23T18:39:35.697Z,99766.78
2023-09-23T18:42:25.947Z,99774.53
2023-09-23T18:45:16.245Z,99775.31
2023-09-23T18:48:22.424Z,99791.31
2023-09-23T18:51:18.839Z,99797.41
2023-09-23T18:54:09.620Z,99802.81
2023-09-23T18:57:00.876Z,99806.69
2023-09-23T18:59:51.548Z,99818.47
2023-09-23T19:02:44.882Z,99821.22
2023-09-23T19:05:36.303Z,99828.94
2023-09-23T19:08:30.408Z,99827.25
2023-09-23T19:11:21.335Z,99830.53
2023-09-23T19:14:13.787Z,99826.69
2023-09-23T19:17:04.378Z,99831.13
2023-09-23T19:19:54.686Z,99835.75
2023-09-23T19:22:44.901Z,99829.84
2023-09-23T19:25:38.000Z,99834.69
2023-09-23T19:28:28.237Z,99843.78
2023-09-23T19:31:20.316Z,99852.31
2023-09-23T19:34:10.797Z,99859.31
2023-09-23T19:37:01.859Z,99853.09
2023-09-23T19:39:52.688Z,99857.69
2023-09-23T19:42:45.770Z,99865.94
2023-09-23T19:45:37.034Z,99859.28
2023-09-23T19:48:27.822Z,99872.63
2023-09-23T19:51:20.614Z,99870.81
2023-09-23T19:54:12.253Z,99882.75
2023-09-23T19:57:02.515Z,99884.56
2023-09-23T19:59:55.815Z,99891.81
2023-09-23T20:02:46.576Z,99895.63
2023-09-23T20:05:37.405Z,99900.66
2023-09-23T20:08:27.723Z,99898.34
2023-09-23T20:11:20.765Z,99901.19
2023-09-23T20:14:11.249Z,99910.03
2023-09-23T20:17:04.537Z,99908.13
2023-09-23T20:19:55.165Z,99914.91
2023-09-23T20:22:45.876Z,99916.53
2023-09-23T20:25:36.289Z,99912.78
2023-09-23T20:28:26.925Z,99925.97
2023-09-23T20:31:17.840Z,99924.81
2023-09-23T20:34:10.948Z,99922.34
2023-09-23T20:37:01.177Z,99922.03
2023-09-23T20:39:53.633Z,99922.38
2023-09-23T20:42:45.081Z,99926.50
2023-09-23T20:45:36.305Z,99925.59
2023-09-23T20:48:26.626Z,99932.47
2023-09-23T20:51:21.260Z,99931.38
2023-09-23T20:54:11.571Z,99939.72
2023-09-23T20:57:02.314Z,99942.50
2023-09-23T20:59:53.898Z,99941.31
2023-09-23T21:02:44.319Z,99945.22
2023-09-23T21:05:34.789Z,99957.41
2023-09-23T21:08:27.779Z,99960.47
2023-09-23T21:11:18.357Z,99962.94
2023-09-23T21:14:09.382Z,99964.56
2023-09-23T21:16:59.668Z,99965.97
2023-09-23T21:19:49.910Z,99969.53
2023-09-23T21:22:40.276Z,99975.59
2023-09-23T21:25:33.356Z,99981.06
2023-09-23T21:28:23.674Z,99972.78
2023-09-23T21:31:14.459Z,99973.09
2023-09-23T21:34:04.962Z,99972.63
2023-09-23T21:36:55.247Z,99973.19
2023-09-23T21:39:45.480Z,99975.66
2023-09-23T21:42:38.384Z,99989.94
2023-09-23T21:45:28.651Z,99992.19
2023-09-23T21:48:19.068Z,99991.28
2023-09-23T21:51:09.611Z,100000.91
2023-09-23T21:54:00.648Z,99998.72
2023-09-23T21:56:51.083Z,99996.56
2023-09-23T21:59:44.450Z,100001.53
2023-09-23T22:02:34.819Z,100007.06
2023-09-23T22:05:25.696Z,100006.50
2023-09-23T22:08:16.104Z,100008.69
2023-09-23T22:11:06.577Z,100008.91
2023-09-23T22:13:56.871Z,100019.19
2023-09-23T22:16:49.718Z,100020.28
2023-09-23T22:19:40.540Z,100014.22
2023-09-23T22:22:32.892Z,100016.97
2023-09-23T22:25:24.501Z,100023.50
2023-09-23T22:28:14.891Z,100020.44
2023-09-23T22:31:05.164Z,100026.75
2023-09-23T22:33:58.382Z,100029.28
2023-09-23T22:36:48.913Z,100031.19
2023-09-23T22:39:46.208Z,100037.47
2023-09-23T22:42:43.862Z,100033.34
2023-09-23T22:45:40.994Z,100039.63
2023-09-23T22:48:31.968Z,100042.09
2023-09-23T22:51:26.695Z,100047.50
2023-09-23T22:54:17.953Z,100063.22
2023-09-23T22:57:08.229Z,100053.88
2023-09-23T23:00:00.516Z,100059.69
2023-09-23T23:02:51.962Z,100065.06
2023-09-23T23:05:42.578Z,100076.72
2023-09-23T23:08:35.656Z,100081.72
2023-09-23T23:11:25.986Z,100070.94
2023-09-23T23:14:16.302Z,100084.97
2023-09-23T23:17:09.553Z,100084.41
2023-09-23T23:20:00.338Z,100088.47
2023-09-23T23:22:50.736Z,100099.38
2023-09-23T23:25:43.635Z,100102.50
2023-09-23T23:28:35.259Z,100103.09
2023-09-23T23:31:25.699Z,100095.25
2023-09-23T23:34:15.980Z,100112.84
2023-09-23T23:37:07.450Z,100113.91
2023-09-23T23:39:57.706Z,100115.84
2023-09-23T23:42:50.759Z,100118.22
2023-09-23T23:45:40.989Z,100125.94
2023-09-23T23:48:31.811Z,100132.47
2023-09-23T23:51:25.492Z,100128.41
2023-09-23T23:54:15.778Z,100131.97
2023-09-23T23:57:06.772Z,100134.19
2023-09-23T23:59:59.666Z,100136.50
